sensor_id;sensor_type;location;lat;lon;timestamp;pressure;altitude;pressure_sealevel;temperature;humidity
21623;BME280;10973;46.706;12.340;2023-07-09T00:02:11;88192.06;;;18.04;56.59
21623;BME280;10973;46.706;12.340;2023-07-09T00:04:40;88191.72;;;18.02;56.53
21623;BME280;10973;46.706;12.340;2023-07-09T00:07:29;88200.50;;;17.99;56.52
21623;BME280;10973;46.706;12.340;2023-07-09T00:09:57;88204.75;;;17.93;56.70
21623;BME280;10973;46.706;12.340;2023-07-09T00:12:25;88200.94;;;17.94;56.69
21623;BME280;10973;46.706;12.340;2023-07-09T00:14:53;88204.38;;;17.91;56.61
21623;BME280;10973;46.706;12.340;2023-07-09T00:17:31;88201.34;;;17.86;56.56
21623;BME280;10973;46.706;12.340;2023-07-09T00:19:59;88206.31;;;17.83;56.47
21623;BME280;10973;46.706;12.340;2023-07-09T00:22:26;88206.72;;;17.82;56.44
21623;BME280;10973;46.706;12.340;2023-07-09T00:24:54;88205.69;;;17.69;56.62
21623;BME280;10973;46.706;12.340;2023-07-09T00:27:28;88203.38;;;17.71;56.65
21623;BME280;10973;46.706;12.340;2023-07-09T00:29:56;88208.34;;;17.69;56.68
21623;BME280;10973;46.706;12.340;2023-07-09T00:32:23;88209.84;;;17.70;56.59
21623;BME280;10973;46.706;12.340;2023-07-09T00:34:51;88203.78;;;17.66;56.80
21623;BME280;10973;46.706;12.340;2023-07-09T00:37:24;88212.56;;;17.66;56.65
21623;BME280;10973;46.706;12.340;2023-07-09T00:39:53;88212.19;;;17.64;56.41
21623;BME280;10973;46.706;12.340;2023-07-09T00:42:22;88204.19;;;17.61;56.87
21623;BME280;10973;46.706;12.340;2023-07-09T00:44:52;88210.31;;;17.61;56.69
21623;BME280;10973;46.706;12.340;2023-07-09T00:53:13;88215.31;;;17.52;57.02
21623;BME280;10973;46.706;12.340;2023-07-09T00:55:45;88206.16;;;17.50;57.04
21623;BME280;10973;46.706;12.340;2023-07-09T00:58:15;88214.56;;;17.45;56.88
21623;BME280;10973;46.706;12.340;2023-07-09T01:00:51;88214.19;;;17.43;56.97
21623;BME280;10973;46.706;12.340;2023-07-09T01:03:37;88205.47;;;17.39;57.10
21623;BME280;10973;46.706;12.340;2023-07-09T01:06:07;88204.69;;;17.38;57.31
21623;BME280;10973;46.706;12.340;2023-07-09T01:08:39;88219.94;;;17.38;57.20
21623;BME280;10973;46.706;12.340;2023-07-09T01:11:16;88208.91;;;17.36;57.43
21623;BME280;10973;46.706;12.340;2023-07-09T01:13:44;88215.00;;;17.36;57.39
21623;BME280;10973;46.706;12.340;2023-07-09T01:16:11;88216.88;;;17.36;56.89
21623;BME280;10973;46.706;12.340;2023-07-09T01:18:42;88213.84;;;17.34;56.77
21623;BME280;10973;46.706;12.340;2023-07-09T01:21:10;88207.81;;;17.30;56.88
21623;BME280;10973;46.706;12.340;2023-07-09T01:23:38;88212.41;;;17.26;56.94
21623;BME280;10973;46.706;12.340;2023-07-09T01:26:05;88215.06;;;17.22;57.00
21623;BME280;10973;46.706;12.340;2023-07-09T01:28:32;88206.69;;;17.24;56.67
21623;BME280;10973;46.706;12.340;2023-07-09T01:31:00;88205.56;;;17.21;56.90
21623;BME280;10973;46.706;12.340;2023-07-09T01:33:27;88216.59;;;17.20;56.98
21623;BME280;10973;46.706;12.340;2023-07-09T01:35:55;88209.78;;;17.11;57.12
21623;BME280;10973;46.706;12.340;2023-07-09T01:38:22;88215.84;;;17.16;56.98
21623;BME280;10973;46.706;12.340;2023-07-09T01:40:50;88198.75;;;17.17;57.03
21623;BME280;10973;46.706;12.340;2023-07-09T01:43:19;88206.38;;;17.15;57.23
21623;BME280;10973;46.706;12.340;2023-07-09T01:45:46;88198.38;;;17.11;56.76
21623;BME280;10973;46.706;12.340;2023-07-09T01:48:13;88191.56;;;17.06;57.19
21623;BME280;10973;46.706;12.340;2023-07-09T01:50:42;88197.69;;;17.00;56.99
21623;BME280;10973;46.706;12.340;2023-07-09T01:53:14;88197.31;;;16.98;57.27
21623;BME280;10973;46.706;12.340;2023-07-09T01:55:43;88193.13;;;16.97;57.40
21623;BME280;10973;46.706;12.340;2023-07-09T01:58:11;88198.44;;;16.97;57.48
21623;BME280;10973;46.706;12.340;2023-07-09T02:00:38;88200.38;;;16.96;57.57
21623;BME280;10973;46.706;12.340;2023-07-09T02:03:06;88200.00;;;16.94;57.35
21623;BME280;10973;46.706;12.340;2023-07-09T02:05:34;88202.25;;;16.96;57.31
21623;BME280;10973;46.706;12.340;2023-07-09T02:08:03;88202.63;;;16.98;57.73
21623;BME280;10973;46.706;12.340;2023-07-09T02:10:31;88201.09;;;16.97;57.35
21623;BME280;10973;46.706;12.340;2023-07-09T02:12:58;88206.06;;;16.95;57.62
21623;BME280;10973;46.706;12.340;2023-07-09T02:15:26;88206.09;;;16.91;57.67
21623;BME280;10973;46.706;12.340;2023-07-09T02:17:53;88204.94;;;16.89;57.43
21623;BME280;10973;46.706;12.340;2023-07-09T02:20:21;88211.81;;;16.86;57.67
21623;BME280;10973;46.706;12.340;2023-07-09T02:22:50;88207.25;;;16.83;57.68
21623;BME280;10973;46.706;12.340;2023-07-09T02:25:18;88204.97;;;16.82;57.31
21623;BME280;10973;46.706;12.340;2023-07-09T02:27:45;88217.91;;;16.80;57.62
21623;BME280;10973;46.706;12.340;2023-07-09T02:30:12;88216.03;;;16.77;57.69
21623;BME280;10973;46.706;12.340;2023-07-09T02:32:40;88215.28;;;16.73;57.77
21623;BME280;10973;46.706;12.340;2023-07-09T02:35:07;88219.47;;;16.70;57.90
21623;BME280;10973;46.706;12.340;2023-07-09T02:37:35;88219.88;;;16.69;57.73
21623;BME280;10973;46.706;12.340;2023-07-09T02:40:04;88230.13;;;16.70;57.66
21623;BME280;10973;46.706;12.340;2023-07-09T02:42:32;88222.91;;;16.67;57.57
21623;BME280;10973;46.706;12.340;2023-07-09T02:44:59;88229.00;;;16.64;57.47
21623;BME280;10973;46.706;12.340;2023-07-09T02:47:26;88226.72;;;16.63;57.42
21623;BME280;10973;46.706;12.340;2023-07-09T02:49:54;88223.31;;;16.59;57.54
21623;BME280;10973;46.706;12.340;2023-07-09T02:52:21;88221.81;;;16.51;57.76
21623;BME280;10973;46.706;12.340;2023-07-09T02:54:49;88226.38;;;16.47;58.31
21623;BME280;10973;46.706;12.340;2023-07-09T02:57:16;88227.09;;;16.47;57.88
21623;BME280;10973;46.706;12.340;2023-07-09T02:59:43;88216.47;;;16.43;57.98
21623;BME280;10973;46.706;12.340;2023-07-09T03:02:11;88226.34;;;16.43;58.06
21623;BME280;10973;46.706;12.340;2023-07-09T03:04:38;88216.47;;;16.47;58.15
21623;BME280;10973;46.706;12.340;2023-07-09T03:07:06;88224.06;;;16.49;57.89
21623;BME280;10973;46.706;12.340;2023-07-09T03:09:33;88214.94;;;16.50;57.94
21623;BME280;10973;46.706;12.340;2023-07-09T03:12:00;88219.88;;;16.48;57.95
21623;BME280;10973;46.706;12.340;2023-07-09T03:14:27;88211.16;;;16.43;57.99
21623;BME280;10973;46.706;12.340;2023-07-09T03:16:55;88216.09;;;16.41;58.06
21623;BME280;10973;46.706;12.340;2023-07-09T03:19:22;88216.47;;;16.40;58.04
21623;BME280;10973;46.706;12.340;2023-07-09T03:21:50;88216.88;;;16.35;58.15
21623;BME280;10973;46.706;12.340;2023-07-09T03:24:17;88216.88;;;16.35;58.26
21623;BME280;10973;46.706;12.340;2023-07-09T03:26:48;88224.88;;;16.35;58.00
21623;BME280;10973;46.706;12.340;2023-07-09T03:29:15;88223.72;;;16.36;57.91
21623;BME280;10973;46.706;12.340;2023-07-09T03:31:42;88220.31;;;16.32;58.13
21623;BME280;10973;46.706;12.340;2023-07-09T03:34:10;88226.38;;;16.29;58.38
21623;BME280;10973;46.706;12.340;2023-07-09T03:36:38;88233.59;;;16.25;58.22
21623;BME280;10973;46.706;12.340;2023-07-09T03:39:06;88237.44;;;16.24;58.12
21623;BME280;10973;46.706;12.340;2023-07-09T03:41:34;88238.16;;;16.24;58.15
21623;BME280;10973;46.706;12.340;2023-07-09T03:44:02;88235.53;;;16.21;58.03
21623;BME280;10973;46.706;12.340;2023-07-09T03:46:29;88237.06;;;16.15;58.27
21623;BME280;10973;46.706;12.340;2023-07-09T03:48:59;88241.22;;;16.16;58.61
21623;BME280;10973;46.706;12.340;2023-07-09T03:51:27;88236.28;;;16.14;58.35
21623;BME280;10973;46.706;12.340;2023-07-09T03:53:55;88238.56;;;16.12;58.26
21623;BME280;10973;46.706;12.340;2023-07-09T03:56:22;88236.66;;;16.13;58.32
21623;BME280;10973;46.706;12.340;2023-07-09T03:58:50;88239.31;;;16.16;58.46
21623;BME280;10973;46.706;12.340;2023-07-09T04:01:17;88243.91;;;16.12;58.53
21623;BME280;10973;46.706;12.340;2023-07-09T04:03:45;88232.50;;;16.12;58.57
21623;BME280;10973;46.706;12.340;2023-07-09T04:06:12;88234.41;;;16.15;58.74
21623;BME280;10973;46.706;12.340;2023-07-09T04:08:40;88246.94;;;16.14;58.61
21623;BME280;10973;46.706;12.340;2023-07-09T04:11:07;88244.28;;;16.14;58.52
21623;BME280;10973;46.706;12.340;2023-07-09T04:13:34;88243.91;;;16.12;58.95
21623;BME280;10973;46.706;12.340;2023-07-09T04:16:02;88249.22;;;16.12;59.14
21623;BME280;10973;46.706;12.340;2023-07-09T04:18:30;88251.47;;;16.14;59.15
21623;BME280;10973;46.706;12.340;2023-07-09T04:20:57;88247.69;;;16.15;59.01
21623;BME280;10973;46.706;12.340;2023-07-09T04:23:25;88252.22;;;16.18;58.97
21623;BME280;10973;46.706;12.340;2023-07-09T04:25:52;88246.91;;;16.18;59.13
21623;BME280;10973;46.706;12.340;2023-07-09T04:28:20;88251.09;;;16.19;58.99
21623;BME280;10973;46.706;12.340;2023-07-09T04:30:51;88247.69;;;16.15;58.92
21623;BME280;10973;46.706;12.340;2023-07-09T04:33:20;88251.47;;;16.14;58.95
21623;BME280;10973;46.706;12.340;2023-07-09T04:35:49;88247.69;;;16.15;59.10
21623;BME280;10973;46.706;12.340;2023-07-09T04:38:17;88235.91;;;16.16;59.07
21623;BME280;10973;46.706;12.340;2023-07-09T04:40:46;88246.16;;;16.17;59.28
21623;BME280;10973;46.706;12.340;2023-07-09T04:43:14;88247.28;;;16.20;59.06
21623;BME280;10973;46.706;12.340;2023-07-09T04:45:41;88251.50;;;16.10;59.33
21623;BME280;10973;46.706;12.340;2023-07-09T04:48:10;88249.59;;;16.14;59.33
21623;BME280;10973;46.706;12.340;2023-07-09T04:50:37;88243.88;;;16.16;59.35
21623;BME280;10973;46.706;12.340;2023-07-09T04:53:05;88246.16;;;16.21;59.48
21623;BME280;10973;46.706;12.340;2023-07-09T04:55:32;88249.94;;;16.20;59.47
21623;BME280;10973;46.706;12.340;2023-07-09T04:58:00;88254.13;;;16.21;59.47
21623;BME280;10973;46.706;12.340;2023-07-09T05:00:27;88247.66;;;16.22;59.70
21623;BME280;10973;46.706;12.340;2023-07-09T05:02:55;88249.56;;;16.18;59.70
21623;BME280;10973;46.706;12.340;2023-07-09T05:05:22;88258.31;;;16.22;59.72
21623;BME280;10973;46.706;12.340;2023-07-09T05:07:50;88255.63;;;16.22;59.69
21623;BME280;10973;46.706;12.340;2023-07-09T05:10:17;88256.41;;;16.19;59.97
21623;BME280;10973;46.706;12.340;2023-07-09T05:12:53;88260.59;;;16.20;59.52
21623;BME280;10973;46.706;12.340;2023-07-09T05:15:23;88261.38;;;16.24;59.66
21623;BME280;10973;46.706;12.340;2023-07-09T05:17:50;88260.59;;;16.23;59.85
21623;BME280;10973;46.706;12.340;2023-07-09T05:20:18;88255.28;;;16.23;59.99
21623;BME280;10973;46.706;12.340;2023-07-09T05:22:45;88258.31;;;16.25;60.04
21623;BME280;10973;46.706;12.340;2023-07-09T05:25:15;88251.47;;;16.28;59.98
21623;BME280;10973;46.706;12.340;2023-07-09T05:27:42;88249.19;;;16.30;59.97
21623;BME280;10973;46.706;12.340;2023-07-09T05:30:10;88248.78;;;16.31;60.10
21623;BME280;10973;46.706;12.340;2023-07-09T05:32:38;88254.13;;;16.35;59.98
21623;BME280;10973;46.706;12.340;2023-07-09T05:35:06;88252.19;;;16.42;60.19
21623;BME280;10973;46.706;12.340;2023-07-09T05:37:37;88250.28;;;16.50;60.35
21623;BME280;10973;46.706;12.340;2023-07-09T05:40:06;88251.06;;;16.61;60.09
21623;BME280;10973;46.706;12.340;2023-07-09T05:42:35;88254.81;;;16.74;60.25
21623;BME280;10973;46.706;12.340;2023-07-09T05:45:02;88256.31;;;16.89;59.96
21623;BME280;10973;46.706;12.340;2023-07-09T05:47:30;88252.06;;;17.02;59.98
21623;BME280;10973;46.706;12.340;2023-07-09T05:49:57;88246.31;;;17.15;60.06
21623;BME280;10973;46.706;12.340;2023-07-09T05:52:25;88252.72;;;17.28;60.24
21623;BME280;10973;46.706;12.340;2023-07-09T05:54:52;88248.50;;;17.37;60.29
21623;BME280;10973;46.706;12.340;2023-07-09T05:57:20;88249.56;;;17.50;60.43
21623;BME280;10973;46.706;12.340;2023-07-09T05:59:48;88249.53;;;17.61;60.15
21623;BME280;10973;46.706;12.340;2023-07-09T06:02:21;88252.50;;;17.70;60.11
21623;BME280;10973;46.706;12.340;2023-07-09T06:04:49;88242.16;;;17.79;60.07
21623;BME280;10973;46.706;12.340;2023-07-09T06:07:17;88237.91;;;17.89;60.03
21623;BME280;10973;46.706;12.340;2023-07-09T06:10:05;88245.47;;;17.97;60.06
21623;BME280;10973;46.706;12.340;2023-07-09T06:12:46;88241.97;;;18.07;60.05
21623;BME280;10973;46.706;12.340;2023-07-09T06:15:14;88233.91;;;18.14;59.57
21623;BME280;10973;46.706;12.340;2023-07-09T06:17:41;88235.72;;;18.28;59.63
21623;BME280;10973;46.706;12.340;2023-07-09T06:20:10;88241.34;;;18.37;59.52
21623;BME280;10973;46.706;12.340;2023-07-09T06:22:37;88231.75;;;18.46;59.61
21623;BME280;10973;46.706;12.340;2023-07-09T06:25:05;88235.09;;;18.58;59.49
21623;BME280;10973;46.706;12.340;2023-07-09T06:27:32;88235.75;;;18.69;59.54
21623;BME280;10973;46.706;12.340;2023-07-09T06:30:00;88237.53;;;18.79;59.29
21623;BME280;10973;46.706;12.340;2023-07-09T06:32:27;88231.75;;;18.87;59.18
21623;BME280;10973;46.706;12.340;2023-07-09T06:34:54;88238.50;;;18.95;58.91
21623;BME280;10973;46.706;12.340;2023-07-09T06:37:22;88242.22;;;19.05;58.33
21623;BME280;10973;46.706;12.340;2023-07-09T06:39:49;88247.84;;;19.14;58.23
21623;BME280;10973;46.706;12.340;2023-07-09T06:42:17;88245.44;;;19.23;58.24
21623;BME280;10973;46.706;12.340;2023-07-09T06:44:44;88244.94;;;19.32;57.68
21623;BME280;10973;46.706;12.340;2023-07-09T06:47:12;88239.16;;;19.40;57.24
21623;BME280;10973;46.706;12.340;2023-07-09T06:49:40;88236.75;;;19.49;56.73
21623;BME280;10973;46.706;12.340;2023-07-09T06:52:07;88232.47;;;19.55;56.33
21623;BME280;10973;46.706;12.340;2023-07-09T06:54:35;88235.78;;;19.63;55.83
21623;BME280;10973;46.706;12.340;2023-07-09T06:57:03;88222.31;;;19.70;55.40
21623;BME280;10973;46.706;12.340;2023-07-09T06:59:30;88221.47;;;19.76;55.53
21623;BME280;10973;46.706;12.340;2023-07-09T07:01:57;88226.34;;;19.85;55.74
21623;BME280;10973;46.706;12.340;2023-07-09T07:04:28;88231.09;;;19.97;55.65
21623;BME280;10973;46.706;12.340;2023-07-09T07:06:56;88234.44;;;20.05;55.48
21623;BME280;10973;46.706;12.340;2023-07-09T07:09:23;88225.53;;;20.11;55.62
21623;BME280;10973;46.706;12.340;2023-07-09T07:11:52;88234.25;;;20.19;55.46
21623;BME280;10973;46.706;12.340;2023-07-09T07:14:20;88224.25;;;20.23;55.50
21623;BME280;10973;46.706;12.340;2023-07-09T07:16:47;88231.38;;;20.33;55.42
21623;BME280;10973;46.706;12.340;2023-07-09T07:19:15;88230.09;;;20.41;55.45
21623;BME280;10973;46.706;12.340;2023-07-09T07:21:42;88221.94;;;20.48;55.34
21623;BME280;10973;46.706;12.340;2023-07-09T07:24:10;88226.84;;;20.53;55.28
21623;BME280;10973;46.706;12.340;2023-07-09T07:26:38;88215.63;;;20.58;54.74
21623;BME280;10973;46.706;12.340;2023-07-09T07:29:05;88213.19;;;20.67;53.89
21623;BME280;10973;46.706;12.340;2023-07-09T07:31:33;88206.19;;;20.73;54.04
21623;BME280;10973;46.706;12.340;2023-07-09T07:34:00;88204.16;;;20.81;54.41
21623;BME280;10973;46.706;12.340;2023-07-09T07:36:28;88204.00;;;20.88;53.98
21623;BME280;10973;46.706;12.340;2023-07-09T07:38:58;88195.03;;;20.98;53.56
21623;BME280;10973;46.706;12.340;2023-07-09T07:41:26;88193.00;;;21.05;53.18
21623;BME280;10973;46.706;12.340;2023-07-09T07:43:54;88189.00;;;21.13;52.51
21623;BME280;10973;46.706;12.340;2023-07-09T07:46:21;88191.22;;;21.18;52.50
21623;BME280;10973;46.706;12.340;2023-07-09T07:48:48;88195.94;;;21.30;53.02
21623;BME280;10973;46.706;12.340;2023-07-09T07:51:16;88195.88;;;21.34;52.43
21623;BME280;10973;46.706;12.340;2023-07-09T07:53:43;88188.09;;;21.40;51.87
21623;BME280;10973;46.706;12.340;2023-07-09T07:56:11;88192.47;;;21.50;51.52
21623;BME280;10973;46.706;12.340;2023-07-09T07:58:38;88189.66;;;21.57;51.30
21623;BME280;10973;46.706;12.340;2023-07-09T08:01:05;88184.63;;;21.59;51.29
21623;BME280;10973;46.706;12.340;2023-07-09T08:03:33;88181.38;;;21.67;51.75
21623;BME280;10973;46.706;12.340;2023-07-09T08:06:01;88178.53;;;21.74;51.13
21623;BME280;10973;46.706;12.340;2023-07-09T08:08:29;88176.94;;;21.77;50.97
21623;BME280;10973;46.706;12.340;2023-07-09T08:11:05;88182.53;;;21.86;50.46
21623;BME280;10973;46.706;12.340;2023-07-09T08:13:38;88181.22;;;21.94;50.51
21623;BME280;10973;46.706;12.340;2023-07-09T08:16:07;88175.69;;;22.01;49.86
21623;BME280;10973;46.706;12.340;2023-07-09T08:18:35;88165.94;;;22.07;49.26
21623;BME280;10973;46.706;12.340;2023-07-09T08:21:03;88164.69;;;22.12;50.00
21623;BME280;10973;46.706;12.340;2023-07-09T08:23:31;88166.44;;;22.18;49.94
21623;BME280;10973;46.706;12.340;2023-07-09T08:26:01;88159.81;;;22.23;48.89
21623;BME280;10973;46.706;12.340;2023-07-09T08:28:31;88163.31;;;22.36;47.13
21623;BME280;10973;46.706;12.340;2023-07-09T08:30:59;88160.03;;;22.44;46.43
21623;BME280;10973;46.706;12.340;2023-07-09T08:33:26;88162.47;;;22.55;46.97
21623;BME280;10973;46.706;12.340;2023-07-09T08:35:54;88156.53;;;22.63;47.49
21623;BME280;10973;46.706;12.340;2023-07-09T08:38:22;88159.03;;;22.70;46.91
21623;BME280;10973;46.706;12.340;2023-07-09T08:40:59;88154.97;;;22.79;45.88
21623;BME280;10973;46.706;12.340;2023-07-09T08:44:14;88157.81;;;22.88;45.04
21623;BME280;10973;46.706;12.340;2023-07-09T08:49:46;88151.22;;;23.05;46.29
21623;BME280;10973;46.706;12.340;2023-07-09T08:52:33;88145.84;;;23.05;44.87
21623;BME280;10973;46.706;12.340;2023-07-09T08:58:00;88141.06;;;23.25;44.76
21623;BME280;10973;46.706;12.340;2023-07-09T09:00:52;88142.03;;;23.31;42.68
21623;BME280;10973;46.706;12.340;2023-07-09T09:03:41;88145.44;;;23.48;43.16
21623;BME280;10973;46.706;12.340;2023-07-09T09:06:27;88141.91;;;23.51;41.36
21623;BME280;10973;46.706;12.340;2023-07-09T09:10:03;88144.16;;;23.65;37.03
21623;BME280;10973;46.706;12.340;2023-07-09T09:15:22;88142.13;;;23.81;36.25
21623;BME280;10973;46.706;12.340;2023-07-09T09:18:17;88145.69;;;23.91;35.71
21623;BME280;10973;46.706;12.340;2023-07-09T09:23:50;88147.97;;;24.05;32.34
21623;BME280;10973;46.706;12.340;2023-07-09T09:26:33;88142.50;;;24.21;33.47
21623;BME280;10973;46.706;12.340;2023-07-09T09:29:13;88143.44;;;24.27;35.05
21623;BME280;10973;46.706;12.340;2023-07-09T09:31:53;88139.09;;;24.42;34.48
21623;BME280;10973;46.706;12.340;2023-07-09T09:34:30;88141.47;;;24.53;33.35
21623;BME280;10973;46.706;12.340;2023-07-09T09:36:59;88137.03;;;24.59;32.83
21623;BME280;10973;46.706;12.340;2023-07-09T09:39:27;88147.25;;;24.64;33.27
21623;BME280;10973;46.706;12.340;2023-07-09T09:41:57;88126.44;;;24.77;33.65
21623;BME280;10973;46.706;12.340;2023-07-09T09:44:28;88135.59;;;24.79;33.55
21623;BME280;10973;46.706;12.340;2023-07-09T09:46:59;88139.81;;;24.81;31.57
21623;BME280;10973;46.706;12.340;2023-07-09T09:49:27;88139.88;;;24.90;31.20
21623;BME280;10973;46.706;12.340;2023-07-09T09:51:55;88136.06;;;25.00;30.92
21623;BME280;10973;46.706;12.340;2023-07-09T09:54:28;88129.25;;;25.08;31.13
21623;BME280;10973;46.706;12.340;2023-07-09T09:56:55;88133.31;;;25.12;31.59
21623;BME280;10973;46.706;12.340;2023-07-09T09:59:32;88131.56;;;25.18;30.05
21623;BME280;10973;46.706;12.340;2023-07-09T10:02:17;88127.72;;;25.28;30.23
21623;BME280;10973;46.706;12.340;2023-07-09T10:04:47;88130.00;;;25.30;30.33
21623;BME280;10973;46.706;12.340;2023-07-09T10:07:28;88124.97;;;25.41;31.76
21623;BME280;10973;46.706;12.340;2023-07-09T10:09:57;88128.44;;;25.41;32.21
21623;BME280;10973;46.706;12.340;2023-07-09T10:12:51;88134.97;;;25.53;31.11
21623;BME280;10973;46.706;12.340;2023-07-09T10:15:48;88133.31;;;25.56;30.33
21623;BME280;10973;46.706;12.340;2023-07-09T10:21:38;88133.31;;;25.56;31.85
21623;BME280;10973;46.706;12.340;2023-07-09T10:27:47;88124.66;;;25.61;31.09
21623;BME280;10973;46.706;12.340;2023-07-09T10:31:04;88129.19;;;25.64;30.64
21623;BME280;10973;46.706;12.340;2023-07-09T10:34:04;88116.59;;;25.70;30.12
21623;BME280;10973;46.706;12.340;2023-07-09T10:39:55;88111.31;;;25.97;29.57
21623;BME280;10973;46.706;12.340;2023-07-09T10:45:09;88114.28;;;26.11;28.60
21623;BME280;10973;46.706;12.340;2023-07-09T10:47:48;88109.97;;;26.23;29.51
21623;BME280;10973;46.706;12.340;2023-07-09T10:50:41;88106.81;;;26.25;29.86
21623;BME280;10973;46.706;12.340;2023-07-09T10:53:41;88108.03;;;26.24;30.23
21623;BME280;10973;46.706;12.340;2023-07-09T10:56:22;88106.06;;;26.33;31.39
21623;BME280;10973;46.706;12.340;2023-07-09T11:01:58;88100.59;;;26.55;29.83
21623;BME280;10973;46.706;12.340;2023-07-09T11:04:51;88101.63;;;26.57;29.01
21623;BME280;10973;46.706;12.340;2023-07-09T11:10:22;88097.47;;;26.83;27.76
21623;BME280;10973;46.706;12.340;2023-07-09T11:13:10;88087.25;;;26.97;27.82
21623;BME280;10973;46.706;12.340;2023-07-09T11:15:45;88091.78;;;27.09;26.78
21623;BME280;10973;46.706;12.340;2023-07-09T11:18:30;88092.66;;;27.24;26.65
21623;BME280;10973;46.706;12.340;2023-07-09T11:21:15;88085.91;;;27.37;26.20
21623;BME280;10973;46.706;12.340;2023-07-09T11:23:52;88088.94;;;27.48;26.99
21623;BME280;10973;46.706;12.340;2023-07-09T11:31:40;88094.56;;;27.78;26.49
21623;BME280;10973;46.706;12.340;2023-07-09T11:42:26;88086.03;;;28.21;24.12
21623;BME280;10973;46.706;12.340;2023-07-09T11:45:11;88077.66;;;28.34;25.04
21623;BME280;10973;46.706;12.340;2023-07-09T11:48:14;88075.94;;;28.45;27.17
21623;BME280;10973;46.706;12.340;2023-07-09T11:50:50;88073.00;;;28.58;26.62
21623;BME280;10973;46.706;12.340;2023-07-09T11:55:56;88075.22;;;28.92;25.33
21623;BME280;10973;46.706;12.340;2023-07-09T11:58:23;88066.09;;;29.04;22.23
21623;BME280;10973;46.706;12.340;2023-07-09T12:00:57;88068.25;;;29.15;22.94
21623;BME280;10973;46.706;12.340;2023-07-09T12:03:33;88066.16;;;29.19;21.25
21623;BME280;10973;46.706;12.340;2023-07-09T12:06:28;88058.03;;;29.33;23.93
21623;BME280;10973;46.706;12.340;2023-07-09T12:08:57;88052.97;;;29.55;22.69
21623;BME280;10973;46.706;12.340;2023-07-09T12:11:30;88058.81;;;29.63;23.35
21623;BME280;10973;46.706;12.340;2023-07-09T12:14:10;88055.53;;;29.74;21.49
21623;BME280;10973;46.706;12.340;2023-07-09T12:16:42;88059.41;;;29.82;20.96
21623;BME280;10973;46.706;12.340;2023-07-09T12:19:12;88055.56;;;29.88;22.36
21623;BME280;10973;46.706;12.340;2023-07-09T12:21:43;88058.06;;;30.06;23.00
21623;BME280;10973;46.706;12.340;2023-07-09T12:24:28;88047.34;;;30.17;20.73
21623;BME280;10973;46.706;12.340;2023-07-09T12:27:03;88039.22;;;30.32;20.74
21623;BME280;10973;46.706;12.340;2023-07-09T12:29:35;88040.84;;;30.44;22.92
21623;BME280;10973;46.706;12.340;2023-07-09T12:32:12;88039.03;;;30.56;20.98
21623;BME280;10973;46.706;12.340;2023-07-09T12:34:39;88033.00;;;30.66;22.46
21623;BME280;10973;46.706;12.340;2023-07-09T12:37:15;88031.63;;;30.76;22.25
21623;BME280;10973;46.706;12.340;2023-07-09T12:39:43;88031.34;;;30.89;22.27
21623;BME280;10973;46.706;12.340;2023-07-09T12:42:18;88036.66;;;30.98;22.33
21623;BME280;10973;46.706;12.340;2023-07-09T12:44:47;88017.19;;;31.05;21.54
21623;BME280;10973;46.706;12.340;2023-07-09T12:47:16;88030.56;;;31.09;21.81
21623;BME280;10973;46.706;12.340;2023-07-09T12:49:45;88028.13;;;31.11;22.69
21623;BME280;10973;46.706;12.340;2023-07-09T12:52:22;88025.50;;;31.22;22.61
21623;BME280;10973;46.706;12.340;2023-07-09T12:55:02;88023.66;;;31.33;19.99
21623;BME280;10973;46.706;12.340;2023-07-09T12:57:30;88021.47;;;31.37;22.24
21623;BME280;10973;46.706;12.340;2023-07-09T12:59:58;88017.63;;;31.44;20.72
21623;BME280;10973;46.706;12.340;2023-07-09T13:02:29;88023.59;;;31.48;20.43
21623;BME280;10973;46.706;12.340;2023-07-09T13:05:04;88018.34;;;31.44;19.51
21623;BME280;10973;46.706;12.340;2023-07-09T13:07:37;88018.84;;;31.43;20.00
21623;BME280;10973;46.706;12.340;2023-07-09T13:10:19;88020.63;;;31.46;20.79
21623;BME280;10973;46.706;12.340;2023-07-09T13:12:50;88015.53;;;31.59;20.47
21623;BME280;10973;46.706;12.340;2023-07-09T13:15:41;88017.59;;;31.69;19.79
21623;BME280;10973;46.706;12.340;2023-07-09T13:18:14;88017.69;;;31.81;20.84
21623;BME280;10973;46.706;12.340;2023-07-09T13:20:45;88011.03;;;31.82;22.72
21623;BME280;10973;46.706;12.340;2023-07-09T13:23:20;88018.38;;;31.96;23.91
21623;BME280;10973;46.706;12.340;2023-07-09T13:25:48;88016.22;;;32.05;24.15
21623;BME280;10973;46.706;12.340;2023-07-09T13:28:26;88004.91;;;32.18;24.54
21623;BME280;10973;46.706;12.340;2023-07-09T13:31:19;88006.34;;;32.13;24.14
21623;BME280;10973;46.706;12.340;2023-07-09T13:33:57;88007.53;;;32.07;23.03
21623;BME280;10973;46.706;12.340;2023-07-09T13:36:25;87999.88;;;32.11;23.84
21623;BME280;10973;46.706;12.340;2023-07-09T13:38:52;87996.75;;;32.23;24.50
21623;BME280;10973;46.706;12.340;2023-07-09T13:41:20;87995.84;;;32.37;23.68
21623;BME280;10973;46.706;12.340;2023-07-09T13:43:48;87993.69;;;32.47;22.40
21623;BME280;10973;46.706;12.340;2023-07-09T13:46:16;87999.13;;;32.47;20.92
21623;BME280;10973;46.706;12.340;2023-07-09T13:48:44;87995.66;;;32.47;21.29
21623;BME280;10973;46.706;12.340;2023-07-09T13:51:23;88005.69;;;32.61;22.88
21623;BME280;10973;46.706;12.340;2023-07-09T13:53:54;88000.03;;;32.70;22.89
21623;BME280;10973;46.706;12.340;2023-07-09T13:56:24;87994.31;;;32.68;23.50
21623;BME280;10973;46.706;12.340;2023-07-09T13:58:51;87996.09;;;32.76;24.19
21623;BME280;10973;46.706;12.340;2023-07-09T14:01:23;87987.72;;;32.91;24.01
21623;BME280;10973;46.706;12.340;2023-07-09T14:03:58;87995.03;;;33.05;24.75
21623;BME280;10973;46.706;12.340;2023-07-09T14:06:26;87986.63;;;33.14;24.74